createdAt,value
2023-03-24T00:00:52.990Z,99422.50
2023-03-24T00:01:40.025Z,99415.19
2023-03-24T00:02:35.044Z,99400.63
2023-03-24T00:03:32.261Z,99394.97
2023-03-24T00:04:26.052Z,99399.53
2023-03-24T00:05:21.017Z,99415.72
2023-03-24T00:06:19.985Z,99417.56
2023-03-24T00:07:01.006Z,99413.13
2023-03-24T00:07:41.220Z,99403.28
2023-03-24T00:08:23.994Z,99410.69
2023-03-24T00:09:04.180Z,99418.84
2023-03-24T00:09:43.983Z,99412.88
2023-03-24T00:10:30.704Z,99415.75
2023-03-24T00:11:15.988Z,99389.81
2023-03-24T00:11:56.146Z,99415.16
2023-03-24T00:12:37.038Z,99386.63
2023-03-24T00:13:17.103Z,99393.41
2023-03-24T00:13:56.988Z,99391.25
2023-03-24T00:14:38.612Z,99403.69
2023-03-24T00:15:25.008Z,99404.03
2023-03-24T00:16:06.156Z,99410.69
2023-03-24T00:16:51.983Z,99408.84
2023-03-24T00:17:32.283Z,99390.50
2023-03-24T00:18:17.001Z,99406.56
2023-03-24T00:18:58.240Z,99398.97
2023-03-24T00:19:39.975Z,99366.66
2023-03-24T00:20:22.268Z,99394.41
2023-03-24T00:21:04.969Z,99401.50
2023-03-24T00:21:46.087Z,99387.34
2023-03-24T00:22:28.026Z,99413.44
2023-03-24T00:23:08.081Z,99380.66
2023-03-24T00:23:50.017Z,99387.94
2023-03-24T00:24:30.110Z,99401.69
2023-03-24T00:25:10.991Z,99388.81
2023-03-24T00:25:53.532Z,99401.69
2023-03-24T00:26:34.968Z,99386.47
2023-03-24T00:27:15.577Z,99406.78
2023-03-24T00:27:58.104Z,99390.88
2023-03-24T00:28:42.779Z,99386.47
2023-03-24T00:29:23.006Z,99383.56
2023-03-24T00:30:03.740Z,99402.00
2023-03-24T00:30:44.073Z,99399.81
2023-03-24T00:31:25.378Z,99387.00
2023-03-24T00:32:06.971Z,99389.84
2023-03-24T00:32:47.092Z,99393.59
2023-03-24T00:33:27.994Z,99375.31
2023-03-24T00:34:08.803Z,99401.69
2023-03-24T00:34:50.004Z,99383.44
2023-03-24T00:35:31.053Z,99398.22
2023-03-24T00:36:15.017Z,99407.53
2023-03-24T00:36:57.079Z,99408.38
2023-03-24T00:37:37.011Z,99408.94
2023-03-24T00:38:17.097Z,99401.44
2023-03-24T00:38:58.001Z,99388.88
2023-03-24T00:39:40.068Z,99390.81
2023-03-24T00:40:25.012Z,99385.38
2023-03-24T00:41:05.126Z,99384.44
2023-03-24T00:41:44.959Z,99393.50
2023-03-24T00:42:25.224Z,99382.31
2023-03-24T00:43:05.975Z,99398.22
2023-03-24T00:43:39.938Z,99398.25
2023-03-24T00:44:29.958Z,99397.41
2023-03-24T00:45:06.115Z,99399.25
2023-03-24T00:45:52.987Z,99386.72
2023-03-24T00:46:29.976Z,99390.84
2023-03-24T00:47:04.075Z,99390.00
2023-03-24T00:47:45.085Z,99383.53
2023-03-24T00:48:24.139Z,99377.94
2023-03-24T00:49:05.673Z,99379.13
2023-03-24T00:49:49.985Z,99380.47
2023-03-24T00:50:27.132Z,99386.56
2023-03-24T00:51:09.994Z,99390.63
2023-03-24T00:51:51.187Z,99361.84
2023-03-24T00:52:32.963Z,99371.28
2023-03-24T00:53:15.751Z,99387.25
2023-03-24T00:53:55.963Z,99367.91
2023-03-24T00:54:36.461Z,99378.88
2023-03-24T00:55:21.945Z,99393.25
2023-03-24T00:56:03.063Z,99370.19
2023-03-24T00:56:47.017Z,99389.53
2023-03-24T00:57:29.880Z,99391.94
2023-03-24T00:58:10.964Z,99367.91
2023-03-24T00:58:51.090Z,99369.88
2023-03-24T00:59:30.951Z,99367.63
2023-03-24T01:00:19.931Z,99377.63
2023-03-24T01:01:02.968Z,99354.59
2023-03-24T01:01:43.432Z,99380.34
2023-03-24T01:02:29.075Z,99365.09
2023-03-24T01:03:09.577Z,99377.91
2023-03-24T01:03:57.000Z,99372.53
2023-03-24T01:04:38.048Z,99356.28
2023-03-24T01:05:18.982Z,99374.22
2023-03-24T01:06:03.095Z,99378.28
2023-03-24T01:06:44.990Z,99350.53
2023-03-24T01:07:25.045Z,99347.19
2023-03-24T01:08:09.967Z,99371.16
2023-03-24T01:08:53.831Z,99373.47
2023-03-24T01:09:33.942Z,99368.63
2023-03-24T01:10:20.047Z,99367.78
2023-03-24T01:11:01.016Z,99372.34
2023-03-24T01:11:47.080Z,99373.81
2023-03-24T01:12:27.936Z,99368.56
2023-03-24T01:13:16.953Z,99370.75
2023-03-24T01:13:52.259Z,99360.50
2023-03-24T01:14:38.928Z,99355.38
2023-03-24T01:15:16.886Z,99363.19
2023-03-24T01:16:05.014Z,99364.97
2023-03-24T01:16:39.387Z,99349.00
2023-03-24T01:17:28.997Z,99320.25
2023-03-24T01:18:03.133Z,99325.94
2023-03-24T01:18:46.961Z,99348.13
2023-03-24T01:19:21.188Z,99336.22
2023-03-24T01:19:54.856Z,99317.09
2023-03-24T01:20:40.941Z,99340.06
2023-03-24T01:21:16.088Z,99344.41
2023-03-24T01:21:50.920Z,99351.84
2023-03-24T01:22:36.935Z,99346.41
2023-03-24T01:23:12.070Z,99331.81
2023-03-24T01:23:45.786Z,99350.63
2023-03-24T01:24:27.947Z,99337.56
2023-03-24T01:25:02.022Z,99327.91
2023-03-24T01:25:37.317Z,99303.38
2023-03-24T01:26:17.938Z,99328.94
2023-03-24T01:26:52.371Z,99337.75
2023-03-24T01:27:27.256Z,99334.38
2023-03-24T01:28:06.900Z,99318.78
2023-03-24T01:28:43.705Z,99343.28
2023-03-24T01:29:17.714Z,99336.06
2023-03-24T01:29:58.950Z,99327.41
2023-03-24T01:30:35.042Z,99323.00
2023-03-24T01:31:10.268Z,99341.59
2023-03-24T01:31:49.937Z,99342.09
2023-03-24T01:32:24.041Z,99348.00
2023-03-24T01:32:58.236Z,99334.47
2023-03-24T01:33:38.911Z,99320.19
2023-03-24T01:34:13.027Z,99340.84
2023-03-24T01:34:46.784Z,99312.78
2023-03-24T01:35:29.611Z,99338.50
2023-03-24T01:36:04.045Z,99333.53
2023-03-24T01:36:37.767Z,99329.78
2023-03-24T01:37:18.916Z,99315.50
2023-03-24T01:37:53.008Z,99332.41
2023-03-24T01:38:26.758Z,99335.78
2023-03-24T01:39:08.906Z,99314.50
2023-03-24T01:39:42.994Z,99333.41
2023-03-24T01:40:26.655Z,99310.25
2023-03-24T01:41:07.944Z,99332.31
2023-03-24T01:41:46.157Z,99325.06
2023-03-24T01:42:23.732Z,99326.66
2023-03-24T01:43:04.912Z,99291.31
2023-03-24T01:43:42.005Z,99315.69
2023-03-24T01:44:44.906Z,99332.84
2023-03-24T01:45:49.023Z,99324.94
2023-03-24T01:46:29.925Z,99311.72
2023-03-24T01:47:14.019Z,99328.91
2023-03-24T01:47:54.911Z,99331.63
2023-03-24T01:48:43.017Z,99326.22
2023-03-24T01:49:24.923Z,99326.22
2023-03-24T01:50:08.007Z,99332.00
2023-03-24T01:50:52.915Z,99309.03
2023-03-24T01:51:50.914Z,99328.66
2023-03-24T01:52:49.898Z,99299.53
2023-03-24T01:53:46.881Z,99306.41
2023-03-24T01:54:54.912Z,99309.00
2023-03-24T01:55:48.901Z,99302.50
2023-03-24T01:56:48.955Z,99322.41
2023-03-24T01:57:48.889Z,99321.22
2023-03-24T01:58:34.040Z,99300.34
2023-03-24T01:59:25.881Z,99301.63
2023-03-24T02:00:11.555Z,99305.84
2023-03-24T02:00:52.982Z,99317.81
2023-03-24T02:01:37.046Z,99296.56
2023-03-24T02:02:19.928Z,99315.94
2023-03-24T02:03:08.024Z,99304.22
2023-03-24T02:03:48.969Z,99282.56
2023-03-24T02:04:29.069Z,99315.78
2023-03-24T02:05:15.880Z,99320.31
2023-03-24T02:06:02.185Z,99326.00
2023-03-24T02:06:47.877Z,99304.00
2023-03-24T02:08:13.926Z,99320.94
2023-03-24T02:09:10.896Z,99322.53
2023-03-24T02:10:04.921Z,99318.22
2023-03-24T02:10:58.884Z,99282.84
2023-03-24T02:11:53.877Z,99303.78
2023-03-24T02:12:47.878Z,99305.44
2023-03-24T02:13:34.899Z,99294.28
2023-03-24T02:14:11.235Z,99308.19
2023-03-24T02:14:58.897Z,99287.38
2023-03-24T02:15:35.989Z,99297.88
2023-03-24T02:16:58.897Z,99315.69
2023-03-24T02:18:06.140Z,99315.28
2023-03-24T02:19:46.911Z,99315.94
2023-03-24T02:21:05.124Z,99313.59
2023-03-24T02:22:57.868Z,99306.59
2023-03-24T02:23:55.631Z,99297.59
2023-03-24T02:25:18.904Z,99301.41
2023-03-24T02:26:04.985Z,99298.03
2023-03-24T02:27:42.896Z,99309.19
2023-03-24T02:28:56.996Z,99303.47
2023-03-24T02:30:00.890Z,99313.25
2023-03-24T02:31:04.911Z,99313.75
2023-03-24T02:31:58.012Z,99308.56
2023-03-24T02:33:24.184Z,99311.03
2023-03-24T02:34:18.899Z,99301.53
2023-03-24T02:35:19.989Z,99303.97
2023-03-24T02:36:33.883Z,99304.91
2023-03-24T02:37:47.988Z,99307.84
2023-03-24T02:38:59.889Z,99305.75
2023-03-24T02:39:51.948Z,99288.38
2023-03-24T02:40:47.290Z,99295.44
2023-03-24T02:42:10.924Z,99281.53
2023-03-24T02:43:11.909Z,99301.16
2023-03-24T02:44:07.858Z,99293.63
2023-03-24T02:45:20.296Z,99296.28
2023-03-24T02:46:46.883Z,99276.09
2023-03-24T02:47:43.938Z,99276.94
2023-03-24T02:48:29.014Z,99291.41
2023-03-24T02:49:35.864Z,99275.53
2023-03-24T02:50:36.954Z,99297.69
2023-03-24T02:51:38.851Z,99272.25
2023-03-24T02:52:32.978Z,99261.28
2023-03-24T02:53:38.895Z,99286.22
2023-03-24T02:54:51.998Z,99267.66
2023-03-24T02:55:59.852Z,99262.22
2023-03-24T02:57:00.963Z,99284.56
2023-03-24T02:58:00.853Z,99285.66
2023-03-24T02:58:59.854Z,99275.41
2023-03-24T02:59:53.504Z,99282.88
2023-03-24T03:00:56.857Z,99260.88
2023-03-24T03:01:41.232Z,99271.69
2023-03-24T03:02:45.903Z,99267.00
2023-03-24T03:03:28.077Z,99268.56
2023-03-24T03:04:30.943Z,99275.34
2023-03-24T03:05:14.359Z,99274.94
2023-03-24T03:06:32.847Z,99267.53
2023-03-24T03:07:10.075Z,99275.53
2023-03-24T03:07:58.861Z,99252.44
2023-03-24T03:08:34.114Z,99264.09
2023-03-24T03:09:25.841Z,99270.84
2023-03-24T03:10:22.863Z,99260.53
2023-03-24T03:11:04.946Z,99257.88
2023-03-24T03:11:47.837Z,99262.56
2023-03-24T03:12:29.911Z,99269.44
2023-03-24T03:13:17.850Z,99235.94
2023-03-24T03:14:40.949Z,99267.16
2023-03-24T03:15:25.879Z,99264.09
2023-03-24T03:16:14.946Z,99258.28
2023-03-24T03:17:18.840Z,99251.31
2023-03-24T03:18:27.704Z,99261.28
2023-03-24T03:19:10.888Z,99248.66
2023-03-24T03:20:06.587Z,99238.94
2023-03-24T03:20:56.838Z,99254.88
2023-03-24T03:21:44.938Z,99250.47
2023-03-24T03:22:31.870Z,99219.50
2023-03-24T03:23:19.961Z,99233.09
2023-03-24T03:24:14.833Z,99232.19
2023-03-24T03:24:58.923Z,99243.78
2023-03-24T03:25:44.838Z,99246.78
2023-03-24T03:26:30.868Z,99233.31
2023-03-24T03:27:14.840Z,99256.94
2023-03-24T03:27:49.735Z,99244.34
2023-03-24T03:28:31.812Z,99222.50
2023-03-24T03:29:18.936Z,99252.31
2023-03-24T03:30:18.463Z,99220.72
2023-03-24T03:31:06.815Z,99227.28
2023-03-24T03:31:55.844Z,99245.97
2023-03-24T03:32:36.307Z,99205.03
2023-03-24T03:33:33.824Z,99223.16
2023-03-24T03:34:34.548Z,99244.34
2023-03-24T03:35:42.927Z,99239.31
2023-03-24T03:36:32.012Z,99213.13
2023-03-24T03:37:49.851Z,99230.53
2023-03-24T03:39:06.709Z,99230.47
2023-03-24T03:40:07.851Z,99222.13
2023-03-24T03:40:56.735Z,99231.34
2023-03-24T03:41:44.800Z,99233.78
2023-03-24T03:42:19.025Z,99213.41
2023-03-24T03:43:05.854Z,99227.47
2023-03-24T03:43:39.641Z,99217.91
2023-03-24T03:44:26.811Z,99238.34
2023-03-24T03:45:00.742Z,99226.91
2023-03-24T03:45:48.843Z,99233.84
2023-03-24T03:46:22.865Z,99232.91
2023-03-24T03:47:09.826Z,99235.63
2023-03-24T03:47:43.804Z,99221.94
2023-03-24T03:48:32.828Z,99248.88
2023-03-24T03:49:07.335Z,99213.81
2023-03-24T03:49:53.808Z,99235.81
2023-03-24T03:50:27.989Z,99223.94
2023-03-24T03:51:15.784Z,99243.78
2023-03-24T03:51:50.604Z,99229.38
2023-03-24T03:52:37.837Z,99237.25
2023-03-24T03:53:13.815Z,99240.06
2023-03-24T03:54:04.826Z,99247.47
2023-03-24T03:54:38.988Z,99223.66
2023-03-24T03:55:12.892Z,99216.13
2023-03-24T03:55:53.799Z,99220.25
2023-03-24T03:56:32.918Z,99236.28
2023-03-24T03:57:06.774Z,99235.56
2023-03-24T03:57:47.800Z,99241.00
2023-03-24T03:58:21.988Z,99223.34
2023-03-24T03:58:55.881Z,99222.88
2023-03-24T03:59:43.831Z,99220.81
2023-03-24T04:00:26.902Z,99212.75
2023-03-24T04:01:00.679Z,99230.97
2023-03-24T04:01:43.834Z,99226.53
2023-03-24T04:02:53.964Z,99238.16
2023-03-24T04:04:13.788Z,99240.53
2023-03-24T04:05:54.856Z,99244.38
2023-03-24T04:06:53.844Z,99237.22
2023-03-24T04:08:35.803Z,99250.19
2023-03-24T04:09:25.835Z,99235.94
2023-03-24T04:10:26.816Z,99243.34
2023-03-24T04:11:39.847Z,99230.75
2023-03-24T04:12:34.995Z,99236.84
2023-03-24T04:13:36.802Z,99239.69
2023-03-24T04:14:27.909Z,99232.56
2023-03-24T04:15:34.804Z,99214.25
2023-03-24T04:16:22.897Z,99232.25
2023-03-24T04:17:32.824Z,99232.03
2023-03-24T04:19:00.000Z,99229.84
2023-03-24T04:20:03.784Z,99205.69
2023-03-24T04:21:33.501Z,99224.91
2023-03-24T04:22:36.819Z,99223.88
2023-03-24T04:23:58.897Z,99234.31
2023-03-24T04:24:46.793Z,99202.13
2023-03-24T04:25:36.149Z,99228.13
2023-03-24T04:27:06.794Z,99221.44
2023-03-24T04:28:03.793Z,99201.63
2023-03-24T04:29:13.426Z,99220.59
2023-03-24T04:30:20.796Z,99220.69
2023-03-24T04:31:24.381Z,99227.34
2023-03-24T04:32:47.799Z,99214.47
2023-03-24T04:33:37.793Z,99226.31
2023-03-24T04:34:37.272Z,99212.06
2023-03-24T04:35:47.039Z,99218.63
2023-03-24T04:36:42.484Z,99190.47
2023-03-24T04:37:32.784Z,99189.63
2023-03-24T04:38:23.264Z,99209.44
2023-03-24T04:39:05.821Z,99207.16
2023-03-24T04:39:49.892Z,99216.25
2023-03-24T04:40:30.782Z,99224.50
2023-03-24T04:41:14.048Z,99228.06
2023-03-24T04:41:55.767Z,99229.75
2023-03-24T04:42:48.854Z,99219.47
2023-03-24T04:43:33.800Z,99238.78
2023-03-24T04:44:20.806Z,99226.19
2023-03-24T04:44:57.676Z,99221.88
2023-03-24T04:45:47.000Z,99216.81
2023-03-24T04:46:22.380Z,99220.06
2023-03-24T04:47:12.751Z,99239.63
2023-03-24T04:47:55.140Z,99236.53
2023-03-24T04:48:41.741Z,99214.53
2023-03-24T04:49:15.731Z,99237.72
2023-03-24T04:49:55.752Z,99223.63
2023-03-24T04:50:43.929Z,99201.38
2023-03-24T04:51:20.609Z,99236.34
2023-03-24T04:52:01.756Z,99226.84
2023-03-24T04:52:35.985Z,99227.97
2023-03-24T04:53:10.667Z,99230.59
2023-03-24T04:53:51.744Z,99242.41
2023-03-24T04:54:28.203Z,99236.34
2023-03-24T04:55:30.796Z,99229.94
2023-03-24T04:56:41.893Z,99219.63
2023-03-24T04:57:21.768Z,99218.97
2023-03-24T04:58:01.853Z,99224.06
2023-03-24T04:58:41.750Z,99230.44
2023-03-24T04:59:22.861Z,99226.03
2023-03-24T05:00:03.740Z,99214.13
2023-03-24T05:00:50.796Z,99216.84
2023-03-24T05:01:30.191Z,99187.56
2023-03-24T05:02:11.858Z,99195.53
2023-03-24T05:02:52.788Z,99215.81
2023-03-24T05:03:37.820Z,99213.84
2023-03-24T05:04:18.818Z,99182.22
2023-03-24T05:04:58.933Z,99210.41
2023-03-24T05:05:39.750Z,99196.97
2023-03-24T05:06:20.751Z,99215.84
2023-03-24T05:06:55.094Z,99209.47
2023-03-24T05:07:41.751Z,99181.38
2023-03-24T05:08:16.445Z,99203.19
2023-03-24T05:09:05.711Z,99195.66
2023-03-24T05:09:39.821Z,99191.53
2023-03-24T05:10:27.736Z,99198.66
2023-03-24T05:11:02.068Z,99212.09
2023-03-24T05:11:42.771Z,99210.47
2023-03-24T05:12:22.914Z,99197.47
2023-03-24T05:13:03.728Z,99203.91
2023-03-24T05:13:44.487Z,99213.03
2023-03-24T05:14:25.716Z,99205.03
2023-03-24T05:15:06.876Z,99184.44
2023-03-24T05:15:47.718Z,99184.59
2023-03-24T05:16:28.933Z,99207.00
2023-03-24T05:17:08.782Z,99213.41
2023-03-24T05:17:48.929Z,99193.16
2023-03-24T05:18:29.736Z,99176.44
2023-03-24T05:19:11.156Z,99192.94
2023-03-24T05:19:51.756Z,99189.19
2023-03-24T05:20:32.977Z,99192.19
2023-03-24T05:21:13.731Z,99151.84
2023-03-24T05:21:54.588Z,99167.25
2023-03-24T05:22:34.747Z,99196.97
2023-03-24T05:23:14.957Z,99179.34
2023-03-24T05:23:55.742Z,99186.94
2023-03-24T05:24:35.996Z,99186.81
2023-03-24T05:25:16.769Z,99167.91
2023-03-24T05:25:56.867Z,99187.41
2023-03-24T05:26:37.844Z,99194.34
2023-03-24T05:27:17.813Z,99179.22
2023-03-24T05:27:58.738Z,99152.63
2023-03-24T05:28:38.843Z,99177.47
2023-03-24T05:29:18.747Z,99182.72
2023-03-24T05:29:58.830Z,99172.50
2023-03-24T05:30:39.754Z,99187.59
2023-03-24T05:31:20.909Z,99173.22
2023-03-24T05:32:01.720Z,99185.44
2023-03-24T05:32:44.311Z,99166.50
2023-03-24T05:33:26.743Z,99179.72
2023-03-24T05:34:07.117Z,99174.81
2023-03-24T05:34:46.688Z,99175.50
2023-03-24T05:35:27.105Z,99159.25
2023-03-24T05:36:07.726Z,99183.47
2023-03-24T05:36:47.818Z,99169.97
2023-03-24T05:37:28.734Z,99135.44
2023-03-24T05:38:08.819Z,99182.72
2023-03-24T05:38:48.757Z,99167.25
2023-03-24T05:39:28.821Z,99180.25
2023-03-24T05:40:09.724Z,99179.91
2023-03-24T05:40:49.822Z,99178.03
2023-03-24T05:41:29.704Z,99149.22
2023-03-24T05:42:10.077Z,99158.25
2023-03-24T05:42:50.786Z,99172.66
2023-03-24T05:43:31.799Z,99165.94
2023-03-24T05:44:12.742Z,99164.06
2023-03-24T05:44:52.792Z,99164.81
2023-03-24T05:45:33.726Z,99168.81
2023-03-24T05:46:14.866Z,99170.25
2023-03-24T05:46:54.694Z,99159.19
2023-03-24T05:47:34.829Z,99146.78
2023-03-24T05:48:15.726Z,99162.91
2023-03-24T05:48:55.808Z,99155.13
2023-03-24T05:49:35.777Z,99158.28
2023-03-24T05:50:16.783Z,99120.16
2023-03-24T05:50:59.718Z,99118.91
2023-03-24T05:51:39.800Z,99156.53
2023-03-24T05:52:26.104Z,99131.00
2023-03-24T05:53:07.797Z,99138.31
2023-03-24T05:53:47.682Z,99157.25
2023-03-24T05:54:27.782Z,99148.72
2023-03-24T05:55:08.682Z,99136.44
2023-03-24T05:55:48.838Z,99143.19
2023-03-24T05:56:29.762Z,99134.00
2023-03-24T05:57:11.011Z,99148.25
2023-03-24T05:57:50.698Z,99135.13
2023-03-24T05:58:30.782Z,99158.22
2023-03-24T05:59:11.689Z,99134.28
2023-03-24T05:59:53.137Z,99138.53
2023-03-24T06:00:33.720Z,99121.94
2023-03-24T06:01:18.819Z,99126.66
2023-03-24T06:01:59.736Z,99126.44
2023-03-24T06:02:40.097Z,99150.94
2023-03-24T06:03:20.811Z,99147.94
2023-03-24T06:04:01.040Z,99150.94
2023-03-24T06:04:41.748Z,99154.09
2023-03-24T06:05:23.206Z,99140.53
2023-03-24T06:06:03.694Z,99134.00
2023-03-24T06:06:58.672Z,99155.41
2023-03-24T06:07:54.682Z,99120.13
2023-03-24T06:08:53.706Z,99133.16
2023-03-24T06:09:48.681Z,99136.56
2023-03-24T06:10:44.678Z,99148.00
2023-03-24T06:11:26.705Z,99147.38
2023-03-24T06:12:10.838Z,99148.41
2023-03-24T06:12:52.664Z,99142.97
2023-03-24T06:13:32.773Z,99132.63
2023-03-24T06:14:15.695Z,99140.97
2023-03-24T06:14:55.737Z,99140.56
2023-03-24T06:15:37.750Z,99142.25
2023-03-24T06:16:18.975Z,99137.81
2023-03-24T06:16:59.692Z,99117.13
2023-03-24T06:17:43.136Z,99146.69
2023-03-24T06:18:24.707Z,99138.84
2023-03-24T06:19:06.688Z,99145.50
2023-03-24T06:19:55.879Z,99116.97
2023-03-24T06:20:36.140Z,99128.13
2023-03-24T06:21:17.677Z,99148.50
2023-03-24T06:22:09.731Z,99136.28
2023-03-24T06:23:05.677Z,99147.53
2023-03-24T06:23:59.703Z,99141.34
2023-03-24T06:24:56.665Z,99122.31
2023-03-24T06:25:50.669Z,99111.44
2023-03-24T06:28:27.613Z,99111.97
2023-03-24T06:29:24.629Z,99118.72
2023-03-24T06:30:21.663Z,99130.69
2023-03-24T06:31:21.561Z,99136.84
2023-03-24T06:32:01.581Z,99129.53
2023-03-24T06:32:43.297Z,99126.53
2023-03-24T06:33:24.590Z,99129.25
2023-03-24T06:34:04.604Z,99124.38
2023-03-24T06:34:40.419Z,99133.94
2023-03-24T06:35:27.583Z,99138.84
2023-03-24T06:36:02.021Z,99113.28
2023-03-24T06:36:48.584Z,99110.84
2023-03-24T06:37:22.963Z,99117.53
2023-03-24T06:38:10.595Z,99127.28
2023-03-24T06:38:45.415Z,99125.59
2023-03-24T06:39:25.655Z,99132.66
2023-03-24T06:40:12.987Z,99123.69
2023-03-24T06:40:53.622Z,99137.53
2023-03-24T06:41:33.679Z,99122.31
2023-03-24T06:42:13.577Z,99133.94
2023-03-24T06:42:53.725Z,99134.22
2023-03-24T06:43:33.602Z,99135.31
2023-03-24T06:44:13.692Z,99138.03
2023-03-24T06:44:53.623Z,99132.25
2023-03-24T06:45:34.771Z,99120.53
2023-03-24T06:46:16.623Z,99146.78
2023-03-24T06:46:56.706Z,99132.13
2023-03-24T06:47:36.685Z,99118.66
2023-03-24T06:48:16.754Z,99127.66
2023-03-24T06:48:57.608Z,99151.69
2023-03-24T06:49:37.731Z,99146.50
2023-03-24T06:50:18.651Z,99144.53
2023-03-24T06:50:59.684Z,99134.03
2023-03-24T06:51:40.634Z,99142.28
2023-03-24T06:52:20.874Z,99124.84
2023-03-24T06:53:00.604Z,99152.69
2023-03-24T06:53:41.364Z,99141.66
2023-03-24T06:54:22.560Z,99126.59
2023-03-24T06:55:02.691Z,99125.50
2023-03-24T06:55:43.720Z,99149.78
2023-03-24T06:56:23.692Z,99137.50
2023-03-24T06:57:04.611Z,99144.88
2023-03-24T06:57:44.713Z,99146.97
2023-03-24T06:58:25.595Z,99153.06
2023-03-24T06:59:05.694Z,99146.13
2023-03-24T06:59:45.675Z,99153.53
2023-03-24T07:00:26.838Z,99153.38
2023-03-24T07:01:08.592Z,99131.53
2023-03-24T07:01:49.567Z,99133.44
2023-03-24T07:02:52.678Z,99151.09
2023-03-24T07:03:48.690Z,99158.34
2023-03-24T07:04:42.565Z,99137.50
2023-03-24T07:05:36.558Z,99121.00
2023-03-24T07:06:24.591Z,99158.50
2023-03-24T07:07:14.753Z,99125.00
2023-03-24T07:08:30.100Z,99119.97
2023-03-24T07:09:01.619Z,99134.47
2023-03-24T07:09:48.574Z,99141.88
2023-03-24T07:10:22.737Z,99146.53
2023-03-24T07:11:10.570Z,99137.53
2023-03-24T07:11:51.605Z,99144.25
2023-03-24T07:12:45.565Z,99136.00
2023-03-24T07:13:39.561Z,99124.34
2023-03-24T07:14:33.569Z,99127.63
2023-03-24T07:15:27.570Z,99131.44
2023-03-24T07:16:22.700Z,99133.06
2023-03-24T07:17:10.604Z,99118.28
2023-03-24T07:17:44.730Z,99118.75
2023-03-24T07:18:32.589Z,99100.69
2023-03-24T07:19:06.668Z,99115.09
2023-03-24T07:19:53.560Z,99137.44
2023-03-24T07:20:27.671Z,99115.03
2023-03-24T07:21:14.555Z,99127.09
2023-03-24T07:21:50.176Z,99119.91
2023-03-24T07:22:31.587Z,99115.75
2023-03-24T07:23:11.753Z,99122.75
2023-03-24T07:23:52.593Z,99112.13
2023-03-24T07:24:32.681Z,99124.19
2023-03-24T07:25:14.570Z,99127.69
2023-03-24T07:25:54.758Z,99121.19
2023-03-24T07:26:35.544Z,99106.69
2023-03-24T07:27:15.743Z,99098.41
2023-03-24T07:27:56.573Z,99106.06
2023-03-24T07:28:36.837Z,99122.25
2023-03-24T07:29:18.546Z,99127.50
2023-03-24T07:29:58.695Z,99115.50
2023-03-24T07:30:51.632Z,99120.84
2023-03-24T07:31:47.591Z,99104.44
2023-03-24T07:32:45.579Z,99118.81
2023-03-24T07:33:26.655Z,99108.66
2023-03-24T07:34:06.632Z,99111.38
2023-03-24T07:34:47.558Z,99105.00
2023-03-24T07:35:27.841Z,99095.28
2023-03-24T07:36:07.636Z,99121.31
2023-03-24T07:36:47.638Z,99113.31
2023-03-24T07:37:28.537Z,99121.59
2023-03-24T07:38:10.382Z,99127.81
2023-03-24T07:38:51.559Z,99121.47
2023-03-24T07:39:45.512Z,99127.72
2023-03-24T07:40:41.517Z,99120.59
2023-03-24T07:41:36.551Z,99124.25
2023-03-24T07:42:30.531Z,99126.00
2023-03-24T07:43:25.556Z,99104.19
2023-03-24T07:44:12.585Z,99107.94
2023-03-24T07:44:46.668Z,99129.22
2023-03-24T07:45:34.604Z,99096.53
2023-03-24T07:46:09.619Z,99122.00
2023-03-24T07:46:57.510Z,99091.25
2023-03-24T07:47:31.706Z,99124.25
2023-03-24T07:48:19.759Z,99102.25
2023-03-24T07:48:53.683Z,99118.09
2023-03-24T07:49:34.547Z,99115.84
2023-03-24T07:50:15.711Z,99096.75
2023-03-24T07:50:56.523Z,99101.03
2023-03-24T07:51:39.378Z,99098.78
2023-03-24T07:52:20.526Z,99105.38
2023-03-24T07:53:00.747Z,99106.56
2023-03-24T07:53:40.509Z,99090.41
2023-03-24T07:54:21.386Z,99113.59
2023-03-24T07:55:02.583Z,99110.94
2023-03-24T07:55:45.739Z,99111.75
2023-03-24T07:56:25.594Z,99093.53
2023-03-24T07:57:08.964Z,99115.19
2023-03-24T07:57:53.519Z,99107.03
2023-03-24T07:58:33.675Z,99119.69
2023-03-24T07:59:16.508Z,99096.91
2023-03-24T07:59:56.686Z,99122.16
2023-03-24T08:00:39.558Z,99100.47
2023-03-24T08:01:20.648Z,99102.13
2023-03-24T08:02:02.562Z,99115.84
2023-03-24T08:02:42.766Z,99104.94
2023-03-24T08:03:23.640Z,99092.72
2023-03-24T08:04:04.543Z,99118.31
2023-03-24T08:04:44.552Z,99094.41
2023-03-24T08:05:29.648Z,99108.78
2023-03-24T08:06:11.518Z,99110.06
2023-03-24T08:06:53.577Z,99084.47
2023-03-24T08:07:34.729Z,99096.59
2023-03-24T08:08:14.634Z,99092.72
2023-03-24T08:08:55.777Z,99079.13
2023-03-24T08:09:35.700Z,99098.75
2023-03-24T08:10:22.520Z,99094.97
2023-03-24T08:11:02.596Z,99083.69
2023-03-24T08:11:43.532Z,99087.84
2023-03-24T08:12:23.646Z,99083.69
2023-03-24T08:13:05.495Z,99090.19
2023-03-24T08:13:45.632Z,99088.34
2023-03-24T08:14:26.523Z,99086.66
2023-03-24T08:15:07.477Z,99073.97
2023-03-24T08:15:48.761Z,99070.44
2023-03-24T08:16:29.659Z,99069.41
2023-03-24T08:17:10.532Z,99089.31
2023-03-24T08:17:51.697Z,99083.69
2023-03-24T08:18:32.498Z,99083.84
2023-03-24T08:19:12.655Z,99082.78
2023-03-24T08:20:00.024Z,99076.47
2023-03-24T08:20:41.980Z,99085.66
2023-03-24T08:21:21.513Z,99089.94
2023-03-24T08:22:02.118Z,99082.13
2023-03-24T08:22:45.514Z,99084.03
2023-03-24T08:23:25.594Z,99075.59
2023-03-24T08:24:06.502Z,99081.50
2023-03-24T08:24:46.724Z,99074.13
2023-03-24T08:25:30.473Z,99055.78
2023-03-24T08:26:10.757Z,99069.69
2023-03-24T08:26:53.515Z,99054.75
2023-03-24T08:27:47.527Z,99076.47
2023-03-24T08:28:41.507Z,99082.69
2023-03-24T08:29:35.526Z,99085.56
2023-03-24T08:30:33.516Z,99043.72
2023-03-24T08:31:27.514Z,99071.78
2023-03-24T08:32:21.502Z,99064.22
2023-03-24T08:33:11.427Z,99083.31
2023-03-24T08:33:47.110Z,99077.63
2023-03-24T08:34:35.493Z,99077.69
2023-03-24T08:35:10.104Z,99079.41
2023-03-24T08:35:58.535Z,99065.75
2023-03-24T08:36:32.601Z,99075.88
2023-03-24T08:37:19.523Z,99084.06
2023-03-24T08:37:53.577Z,99084.75
2023-03-24T08:38:37.487Z,99063.94
2023-03-24T08:39:17.683Z,99071.56
2023-03-24T08:39:58.586Z,99077.66
2023-03-24T08:40:38.654Z,99071.16
2023-03-24T08:41:18.476Z,99064.19
2023-03-24T08:41:58.653Z,99072.38
2023-03-24T08:42:38.474Z,99085.38
2023-03-24T08:43:23.289Z,99077.44
2023-03-24T08:44:06.872Z,99078.53
2023-03-24T08:44:48.556Z,99073.94
2023-03-24T08:45:33.471Z,99081.94
2023-03-24T08:46:16.513Z,99068.44
2023-03-24T08:46:56.481Z,99075.38
2023-03-24T08:47:36.652Z,99045.50
2023-03-24T08:48:17.484Z,99073.53
2023-03-24T08:48:57.560Z,99055.78
2023-03-24T08:49:37.494Z,99060.88
2023-03-24T08:50:18.571Z,99060.28
2023-03-24T08:50:58.466Z,99051.88
2023-03-24T08:51:39.576Z,99083.16
2023-03-24T08:52:20.440Z,99045.50
2023-03-24T08:53:02.571Z,99051.19
2023-03-24T08:53:42.490Z,99070.59
2023-03-24T08:54:23.818Z,99068.44
2023-03-24T08:55:04.524Z,99067.25
2023-03-24T08:55:45.582Z,99048.78
2023-03-24T08:56:27.497Z,99069.78
2023-03-24T08:57:07.681Z,99051.75
2023-03-24T08:57:47.463Z,99059.94
2023-03-24T08:58:28.561Z,99064.34
2023-03-24T08:59:08.490Z,99067.56
2023-03-24T08:59:50.211Z,99069.06
2023-03-24T09:00:32.486Z,99050.31
2023-03-24T09:01:39.203Z,99050.72